aviador You're here:

KEQY Decoded Metar

MONROE in NC, USA
Report Time2017-11-23 19:53:00
UTC Time2017-11-23 20:15:49
Flight Rules vfr VFR
WindCalm
Visibility9999 m
Phenomena:N/A
Clouds:N/A
Expected CloudBase > 4,800 ft AGL from Temp-Dew spread
CeilingNone
Temp11°C (ISA -3)
Dew Point-1°C (44% RH)
AAT8.9°C
QNH1017 hPa
Density Alt331 ft
Elevation696 ft
Report Wrong Elevation
Raw Report
KEQY 231953Z AUTO 00000KT 10SM CLR 11/M01 A3004 RMK AO2 SLP188
T01111006=

Extra information for KEQY:More info

Metar Taf Metar & Taf Last 4 Metars F.Rules Stats Wind Profile Meteogram Temp Stats Airport Information Weather charts Add Link Nearby VenuesMetar ALERT Operation Metar Decoded Social comments

AIRNAV info for KEQY